This is the latest recevied weather packets stored in our database for station/object IU8HRV-10. If no packets are shown the sender has not sent any weather packets the latest 10 day(s).
| Time | Temp. | Humidity | Pressure | Rain* | Wind** | Luminosity | Snow |
|---|---|---|---|---|---|---|---|
| 1777601726 | 17.22° C | 41% | 1018 hPa | - | - | - | - |
| 1777587308 | 23.33° C | 36% | 1018 hPa | - | - | - | - |
| 1777581901 | 24.44° C | 36% | 1018 hPa | - | - | - | - |
| 1777581000 | 25.56° C | 35% | 1018 hPa | - | - | - | - |
| 1777580099 | 25.56° C | 35% | 1018 hPa | - | - | - | - |
| 1777577395 | 25° C | 37% | 1018 hPa | - | - | - | - |
| 1777574692 | 26.11° C | 37% | 1017 hPa | - | - | - | - |
| 1777573791 | 26.11° C | 37% | 1017 hPa | - | - | - | - |
| 1777570187 | 28.33° C | 36% | 1017 hPa | - | - | - | - |
| 1777568385 | 28.89° C | 35% | 1017 hPa | - | - | - | - |
| 1777567483 | 30° C | 34% | 1017 hPa | - | - | - | - |
| 1777566582 | 30.56° C | 34% | 1017 hPa | - | - | - | - |
| 1777557571 | 26.67° C | 39% | 1017 hPa | - | - | - | - |
| 1777556670 | 26.11° C | 39% | 1017 hPa | - | - | - | - |
| 1777555769 | 25.56° C | 39% | 1017 hPa | - | - | - | - |
| 1777554868 | 25.56° C | 38% | 1017 hPa | - | - | - | - |
| 1777553967 | 25.56° C | 38% | 1017 hPa | - | - | - | - |
| 1777553066 | 25° C | 38% | 1017 hPa | - | - | - | - |
| 1777552164 | 25° C | 39% | 1017 hPa | - | - | - | - |
| 1777550362 | 23.89° C | 39% | 1017 hPa | - | - | - | - |
| 1777546757 | 23.33° C | 39% | 1017 hPa | - | - | - | - |
| 1777544955 | 22.78° C | 40% | 1017 hPa | - | - | - | - |
| 1777544054 | 22.78° C | 40% | 1017 hPa | - | - | - | - |
| 1777543153 | 22.78° C | 40% | 1017 hPa | - | - | - | - |
| 1777542252 | 22.22° C | 40% | 1017 hPa | - | - | - | - |
* Rain since midnight (hover to see other rain measurements)
** Current wind speed in m/s (hover to see current wind gust speed)